createdAt,value
2022-11-26T00:02:23.619Z,4.40
2022-11-26T00:04:51.029Z,5.32
2022-11-26T00:07:22.001Z,3.58
2022-11-26T00:09:50.130Z,5.22
2022-11-26T00:12:22.021Z,5.25
2022-11-26T00:14:49.478Z,4.53
2022-11-26T00:17:19.788Z,4.07
2022-11-26T00:19:47.393Z,12.80
2022-11-26T00:22:23.909Z,8.25
2022-11-26T00:24:51.573Z,11.13
2022-11-26T00:27:18.854Z,5.82
2022-11-26T00:29:48.157Z,7.10
2022-11-26T00:32:23.058Z,4.63
2022-11-26T00:34:50.288Z,4.30
2022-11-26T00:37:26.246Z,7.30
2022-11-26T00:39:54.555Z,3.17
2022-11-26T00:42:22.741Z,4.22
2022-11-26T00:44:49.951Z,4.68
2022-11-26T00:47:17.026Z,4.20
2022-11-26T00:49:44.316Z,4.72
2022-11-26T00:52:33.921Z,4.30
2022-11-26T00:55:03.577Z,4.07
2022-11-26T00:57:30.776Z,4.38
2022-11-26T00:59:57.946Z,4.13
2022-11-26T01:02:25.161Z,4.07
2022-11-26T01:04:52.416Z,8.48
2022-11-26T01:07:19.596Z,6.15
2022-11-26T01:09:47.750Z,9.43
2022-11-26T01:12:15.221Z,10.10
2022-11-26T01:14:42.399Z,13.73
2022-11-26T01:17:11.574Z,12.48
2022-11-26T01:19:38.967Z,12.20
2022-11-26T01:22:06.526Z,11.63
2022-11-26T01:24:33.951Z,13.02
2022-11-26T01:27:01.115Z,9.95
2022-11-26T01:29:28.903Z,12.32
2022-11-26T01:31:57.339Z,10.95
2022-11-26T01:34:24.526Z,16.77
2022-11-26T01:36:52.532Z,15.93
2022-11-26T01:39:20.570Z,13.77
2022-11-26T01:41:56.545Z,14.50
2022-11-26T01:44:27.766Z,15.23
2022-11-26T01:46:54.956Z,13.50
2022-11-26T01:49:29.522Z,10.07
2022-11-26T01:52:09.886Z,12.65
2022-11-26T01:54:39.536Z,11.95
2022-11-26T01:57:29.790Z,12.40
2022-11-26T02:00:00.608Z,12.02
2022-11-26T02:02:29.994Z,10.73
2022-11-26T02:05:15.603Z,13.38
2022-11-26T02:07:42.713Z,12.98
2022-11-26T02:10:10.553Z,14.77
2022-11-26T02:12:38.254Z,11.48
2022-11-26T02:15:05.550Z,11.18
2022-11-26T02:17:39.723Z,10.07
2022-11-26T02:20:25.452Z,12.63
2022-11-26T02:22:55.713Z,10.38
2022-11-26T02:25:29.628Z,12.88
2022-11-26T02:28:16.389Z,9.35
2022-11-26T02:30:49.394Z,8.15
2022-11-26T02:33:19.795Z,9.05
2022-11-26T02:35:52.252Z,10.95
2022-11-26T02:38:21.871Z,9.48
2022-11-26T02:40:50.566Z,4.70
2022-11-26T02:43:18.025Z,3.38
2022-11-26T02:45:49.958Z,5.63
2022-11-26T02:48:20.478Z,3.95
2022-11-26T02:50:55.543Z,3.47
2022-11-26T02:53:23.422Z,3.25
2022-11-26T02:55:53.402Z,3.85
2022-11-26T02:58:20.945Z,3.60
2022-11-26T03:00:48.692Z,4.10
2022-11-26T03:03:26.258Z,3.90
2022-11-26T03:05:55.467Z,2.47
2022-11-26T03:08:23.120Z,4.03
2022-11-26T03:10:50.211Z,4.25
2022-11-26T03:13:17.309Z,2.75
2022-11-26T03:15:44.660Z,4.28
2022-11-26T03:18:11.808Z,3.00
2022-11-26T03:20:38.885Z,3.25
2022-11-26T03:23:06.270Z,4.05
2022-11-26T03:25:33.649Z,6.50
2022-11-26T03:28:00.846Z,3.15
2022-11-26T03:30:27.920Z,3.47
2022-11-26T03:32:55.004Z,3.13
2022-11-26T03:35:22.311Z,3.80
2022-11-26T03:37:50.266Z,5.38
2022-11-26T03:40:18.073Z,8.57
2022-11-26T03:42:45.310Z,9.65
2022-11-26T03:45:12.505Z,10.23
2022-11-26T03:47:39.635Z,6.82
2022-11-26T03:50:07.109Z,15.43
2022-11-26T03:52:34.242Z,10.27
2022-11-26T03:55:01.371Z,6.93
2022-11-26T03:57:29.681Z,6.53
2022-11-26T03:59:56.717Z,7.28
2022-11-26T04:02:23.828Z,7.18
2022-11-26T04:04:51.084Z,7.22
2022-11-26T04:07:18.245Z,11.02
2022-11-26T04:09:45.438Z,6.65
2022-11-26T04:12:12.547Z,8.80
2022-11-26T04:14:39.816Z,7.68
2022-11-26T04:17:07.298Z,8.50
2022-11-26T04:19:34.395Z,8.27
2022-11-26T04:22:01.495Z,8.65
2022-11-26T04:24:28.633Z,10.10
2022-11-26T04:26:55.684Z,10.52
2022-11-26T04:29:22.769Z,9.48
2022-11-26T04:31:49.981Z,9.40
2022-11-26T04:34:16.989Z,6.63
2022-11-26T04:36:44.244Z,10.93
2022-11-26T04:39:12.770Z,12.45
2022-11-26T04:41:40.229Z,7.43
2022-11-26T04:44:07.459Z,6.68
2022-11-26T04:46:36.064Z,9.48
2022-11-26T04:49:03.079Z,10.73
2022-11-26T04:51:30.415Z,10.93
2022-11-26T04:54:00.418Z,9.77
2022-11-26T04:56:33.589Z,8.52
2022-11-26T04:59:01.010Z,8.98
2022-11-26T05:01:28.384Z,11.57
2022-11-26T05:03:55.726Z,7.95
2022-11-26T05:06:22.854Z,10.32
2022-11-26T05:08:50.125Z,8.15
2022-11-26T05:11:17.370Z,12.77
2022-11-26T05:13:45.460Z,9.75
2022-11-26T05:16:12.553Z,8.63
2022-11-26T05:18:40.545Z,10.05
2022-11-26T05:21:08.493Z,15.73
2022-11-26T05:23:35.600Z,21.52
2022-11-26T05:26:02.775Z,13.77
2022-11-26T05:28:30.346Z,14.45
2022-11-26T05:31:01.228Z,14.32
2022-11-26T05:33:28.944Z,13.00
2022-11-26T05:35:56.378Z,9.65
2022-11-26T05:38:23.610Z,13.50
2022-11-26T05:40:50.733Z,12.38
2022-11-26T05:43:18.359Z,11.38
2022-11-26T05:45:46.576Z,15.77
2022-11-26T05:48:13.715Z,21.27
2022-11-26T05:50:40.826Z,19.45
2022-11-26T05:53:09.997Z,15.60
2022-11-26T05:55:37.147Z,12.52
2022-11-26T05:58:04.344Z,12.95
2022-11-26T06:00:32.964Z,15.10
2022-11-26T06:03:01.327Z,12.05
2022-11-26T06:05:28.507Z,14.80
2022-11-26T06:07:55.686Z,23.60
2022-11-26T06:10:23.693Z,18.30
2022-11-26T06:12:51.633Z,16.10
2022-11-26T06:15:18.858Z,22.70
2022-11-26T06:17:46.052Z,19.30
2022-11-26T06:20:13.454Z,17.17
2022-11-26T06:22:41.841Z,18.40
2022-11-26T06:25:09.979Z,17.15
2022-11-26T06:27:38.819Z,14.85
2022-11-26T06:30:07.377Z,16.80
2022-11-26T06:32:34.618Z,18.27
2022-11-26T06:35:01.763Z,19.40
2022-11-26T06:37:28.966Z,19.00
2022-11-26T06:39:56.186Z,19.38
2022-11-26T06:42:23.231Z,20.35
2022-11-26T06:44:50.377Z,21.60
2022-11-26T06:47:17.584Z,32.10
2022-11-26T06:49:47.615Z,41.50
2022-11-26T06:52:14.825Z,33.97
2022-11-26T06:54:42.081Z,51.53
2022-11-26T06:57:11.621Z,47.13
2022-11-26T06:59:38.902Z,49.55
2022-11-26T07:02:06.126Z,39.63
2022-11-26T07:04:36.360Z,35.70
2022-11-26T07:07:03.683Z,26.75
2022-11-26T07:09:31.131Z,30.23
2022-11-26T07:11:59.100Z,25.30
2022-11-26T07:14:27.353Z,28.02
2022-11-26T07:16:54.521Z,32.17
2022-11-26T07:19:21.637Z,24.15
2022-11-26T07:21:48.743Z,32.90
2022-11-26T07:24:16.231Z,31.13
2022-11-26T07:26:43.429Z,24.73
2022-11-26T07:29:10.712Z,23.08
2022-11-26T07:31:40.496Z,31.67
2022-11-26T07:34:07.868Z,27.63
2022-11-26T07:36:35.102Z,29.52
2022-11-26T07:39:02.780Z,32.92
2022-11-26T07:41:30.686Z,32.63
2022-11-26T07:43:58.599Z,31.02
2022-11-26T07:46:29.054Z,30.90
2022-11-26T07:48:57.465Z,32.63
2022-11-26T07:51:28.664Z,31.92
2022-11-26T07:53:59.173Z,18.95
2022-11-26T07:56:27.736Z,26.50
2022-11-26T07:58:58.576Z,24.35
2022-11-26T08:01:27.579Z,15.80
2022-11-26T08:03:56.802Z,18.85
2022-11-26T08:06:26.196Z,19.13
2022-11-26T08:08:53.799Z,15.00
2022-11-26T08:11:25.567Z,19.17
2022-11-26T08:13:54.943Z,16.55
2022-11-26T08:16:23.677Z,17.77
2022-11-26T08:18:55.028Z,23.15
2022-11-26T08:21:22.504Z,36.50
2022-11-26T08:23:49.677Z,17.80
2022-11-26T08:26:30.972Z,18.60
2022-11-26T08:29:02.104Z,19.37
2022-11-26T08:31:29.805Z,20.98
2022-11-26T08:33:57.517Z,14.98
2022-11-26T08:36:24.852Z,21.60
2022-11-26T08:38:52.098Z,25.98
2022-11-26T08:41:19.340Z,17.38
2022-11-26T08:46:35.745Z,28.40
2022-11-26T08:49:03.581Z,28.25
2022-11-26T08:51:30.755Z,25.88
2022-11-26T08:53:57.893Z,27.70
2022-11-26T08:56:25.094Z,33.33
2022-11-26T08:58:53.271Z,29.48
2022-11-26T09:01:28.099Z,36.47
2022-11-26T09:03:56.395Z,24.20
2022-11-26T09:06:24.664Z,27.38
2022-11-26T09:09:10.528Z,34.53
2022-11-26T09:11:39.313Z,39.03
2022-11-26T09:14:06.501Z,41.60
2022-11-26T09:16:33.811Z,44.25
2022-11-26T09:19:01.330Z,50.33
2022-11-26T09:21:28.916Z,58.00
2022-11-26T09:23:56.276Z,52.00
2022-11-26T09:26:23.520Z,55.08
2022-11-26T09:28:50.969Z,62.20
2022-11-26T09:31:18.715Z,49.20
2022-11-26T09:33:46.103Z,53.08
2022-11-26T09:36:18.752Z,47.33
2022-11-26T09:38:47.398Z,53.30
2022-11-26T09:41:25.436Z,40.90
2022-11-26T09:44:08.186Z,43.80
2022-11-26T09:46:50.829Z,34.45
2022-11-26T09:49:26.102Z,27.88
2022-11-26T09:51:55.709Z,43.95
2022-11-26T09:54:24.348Z,37.22
2022-11-26T09:56:54.210Z,43.40
2022-11-26T09:59:22.822Z,43.67
2022-11-26T10:01:51.267Z,39.90
2022-11-26T10:04:24.623Z,47.97
2022-11-26T10:06:59.117Z,41.40
2022-11-26T10:09:38.900Z,36.83
2022-11-26T10:12:26.501Z,43.15
2022-11-26T10:14:54.697Z,46.97
2022-11-26T10:17:28.174Z,36.05
2022-11-26T10:19:59.116Z,49.53
2022-11-26T10:22:39.065Z,49.20
2022-11-26T10:25:14.889Z,41.50
2022-11-26T10:27:42.903Z,46.38
2022-11-26T10:30:17.518Z,44.80
2022-11-26T10:32:45.962Z,50.43
2022-11-26T10:35:18.693Z,47.47
2022-11-26T10:37:47.818Z,49.85
2022-11-26T10:40:25.293Z,42.25
2022-11-26T10:43:15.563Z,37.70
2022-11-26T10:45:44.126Z,51.88
2022-11-26T10:48:20.217Z,33.90
2022-11-26T10:50:58.594Z,42.03
2022-11-26T10:53:26.725Z,48.75
2022-11-26T10:56:01.958Z,49.22
2022-11-26T10:58:40.336Z,36.90
2022-11-26T11:01:07.973Z,42.03
2022-11-26T11:06:40.280Z,36.63
2022-11-26T11:09:26.422Z,35.92
2022-11-26T11:12:08.880Z,33.95
2022-11-26T11:14:42.379Z,30.05
2022-11-26T11:17:24.485Z,32.28
2022-11-26T11:19:51.963Z,31.30
2022-11-26T11:22:22.784Z,36.60
2022-11-26T11:24:50.076Z,31.90
2022-11-26T11:27:30.918Z,27.95
2022-11-26T11:30:01.642Z,38.30
2022-11-26T11:32:39.353Z,38.58
2022-11-26T11:35:32.598Z,21.17
2022-11-26T11:38:00.650Z,27.40
2022-11-26T11:40:29.490Z,18.48
2022-11-26T11:43:00.807Z,19.88
2022-11-26T11:45:41.964Z,24.98
2022-11-26T11:48:21.959Z,18.23
2022-11-26T11:50:58.499Z,11.50
2022-11-26T11:53:44.865Z,11.38
2022-11-26T11:56:12.038Z,18.63
2022-11-26T11:58:54.413Z,12.57
2022-11-26T12:01:27.655Z,16.75
2022-11-26T12:04:07.267Z,16.77
2022-11-26T12:06:46.216Z,13.15
2022-11-26T12:09:13.500Z,20.40
2022-11-26T12:11:52.618Z,23.20
2022-11-26T12:14:38.130Z,16.08
2022-11-26T12:17:40.756Z,15.23
2022-11-26T12:20:19.862Z,23.60
2022-11-26T12:22:54.808Z,18.33
2022-11-26T12:25:35.168Z,19.80
2022-11-26T12:28:12.803Z,17.85
2022-11-26T12:30:58.577Z,21.10
2022-11-26T12:33:36.601Z,26.80
2022-11-26T12:36:12.324Z,27.02
2022-11-26T12:38:48.116Z,18.80
2022-11-26T12:41:18.789Z,33.35
2022-11-26T12:44:04.480Z,34.30
2022-11-26T12:46:35.421Z,35.17
2022-11-26T12:49:29.435Z,27.00
2022-11-26T12:52:02.773Z,23.75
2022-11-26T12:54:38.824Z,30.00
2022-11-26T12:57:15.511Z,32.92
2022-11-26T12:59:52.031Z,29.08
2022-11-26T13:02:39.484Z,38.97
2022-11-26T13:05:07.059Z,197.30
2022-11-26T13:07:43.726Z,42.60
2022-11-26T13:10:46.558Z,35.17
2022-11-26T13:13:19.628Z,40.72
2022-11-26T13:15:49.339Z,44.88
2022-11-26T13:18:24.171Z,36.58
2022-11-26T13:21:01.066Z,53.35
2022-11-26T13:23:43.826Z,38.72
2022-11-26T13:26:37.608Z,44.20
2022-11-26T13:29:23.572Z,49.00
2022-11-26T13:32:12.991Z,40.83
2022-11-26T13:34:41.332Z,41.67
2022-11-26T13:37:28.800Z,70.45
2022-11-26T13:40:14.815Z,60.28
2022-11-26T13:45:28.115Z,63.20
2022-11-26T13:48:02.080Z,48.83
2022-11-26T13:50:35.568Z,48.03
2022-11-26T13:53:15.878Z,54.95
2022-11-26T13:55:49.169Z,58.30
2022-11-26T13:58:31.015Z,57.65
2022-11-26T14:01:18.163Z,51.78
2022-11-26T14:03:47.781Z,52.97
2022-11-26T14:06:15.358Z,50.95
2022-11-26T14:08:44.584Z,47.97
2022-11-26T14:11:12.429Z,52.25
2022-11-26T14:13:39.833Z,39.95
2022-11-26T14:16:09.514Z,45.63
2022-11-26T14:18:49.166Z,39.80
2022-11-26T14:21:17.284Z,46.20
2022-11-26T14:23:46.001Z,35.97
2022-11-26T14:26:25.849Z,40.92
2022-11-26T14:29:03.510Z,49.67
2022-11-26T14:31:32.303Z,77.68
2022-11-26T14:34:03.527Z,85.63
2022-11-26T14:36:31.297Z,77.43
2022-11-26T14:39:11.826Z,60.17
2022-11-26T14:41:42.968Z,73.20
2022-11-26T14:44:14.410Z,61.95
2022-11-26T14:46:49.561Z,64.30
2022-11-26T14:49:16.829Z,100.97
2022-11-26T14:51:46.442Z,86.70
2022-11-26T14:54:15.823Z,90.90
2022-11-26T14:56:46.391Z,96.10
2022-11-26T14:59:15.551Z,82.85
2022-11-26T15:01:49.318Z,98.93
2022-11-26T15:04:24.646Z,97.65
2022-11-26T15:06:52.155Z,112.88
2022-11-26T15:09:24.537Z,110.85
2022-11-26T15:11:57.650Z,98.78
2022-11-26T15:14:30.884Z,90.50
2022-11-26T15:17:02.406Z,100.82
2022-11-26T15:19:32.237Z,95.65
2022-11-26T15:22:00.653Z,106.55
2022-11-26T15:24:27.813Z,99.13
2022-11-26T15:26:55.420Z,101.90
2022-11-26T15:29:28.328Z,108.90
2022-11-26T15:31:55.373Z,86.45
2022-11-26T15:34:22.582Z,96.35
2022-11-26T15:36:49.614Z,86.40
2022-11-26T15:39:30.739Z,95.03
2022-11-26T15:42:17.773Z,115.53
2022-11-26T15:44:49.317Z,106.25
2022-11-26T15:47:19.802Z,98.53
2022-11-26T15:49:49.068Z,123.40
2022-11-26T15:52:16.363Z,124.25
2022-11-26T15:55:11.369Z,142.75
2022-11-26T15:57:39.648Z,139.70
2022-11-26T16:00:17.073Z,132.05
2022-11-26T16:02:45.307Z,141.73
2022-11-26T16:05:24.111Z,140.93
2022-11-26T16:08:04.507Z,134.43
2022-11-26T16:10:35.796Z,145.35
2022-11-26T16:13:23.320Z,122.45
2022-11-26T16:15:52.132Z,102.20
2022-11-26T16:18:21.311Z,108.78
2022-11-26T16:20:48.743Z,97.38
2022-11-26T16:23:21.648Z,106.65
2022-11-26T16:26:07.295Z,106.80
2022-11-26T16:28:34.448Z,98.80
2022-11-26T16:31:01.627Z,84.55
2022-11-26T16:33:29.572Z,226.40
2022-11-26T16:35:59.493Z,64.65
2022-11-26T16:38:27.531Z,63.03
2022-11-26T16:40:55.322Z,63.58
2022-11-26T16:43:22.841Z,63.72
2022-11-26T16:45:50.989Z,64.05
2022-11-26T16:48:25.623Z,55.05
2022-11-26T16:50:57.037Z,63.30
2022-11-26T16:53:24.296Z,58.45
2022-11-26T16:55:52.779Z,167.73
2022-11-26T16:58:26.933Z,82.07
2022-11-26T17:00:54.725Z,74.28
2022-11-26T17:03:25.545Z,76.28
2022-11-26T17:05:53.990Z,88.63
2022-11-26T17:08:21.393Z,69.97
2022-11-26T17:10:51.158Z,75.00
2022-11-26T17:13:18.575Z,77.75
2022-11-26T17:15:45.847Z,141.35
2022-11-26T17:18:16.423Z,96.05
2022-11-26T17:20:45.958Z,74.68
2022-11-26T17:23:14.342Z,73.43
2022-11-26T17:25:43.217Z,78.90
2022-11-26T17:28:11.764Z,82.10
2022-11-26T17:30:39.647Z,75.88
2022-11-26T17:33:09.529Z,76.18
2022-11-26T17:35:37.216Z,79.68
2022-11-26T17:38:05.157Z,74.70
2022-11-26T17:40:33.661Z,80.60
2022-11-26T17:43:00.771Z,87.40
2022-11-26T17:45:28.034Z,88.30
2022-11-26T17:47:55.328Z,110.55
2022-11-26T17:50:24.243Z,118.63
2022-11-26T17:52:52.922Z,110.97
2022-11-26T17:55:22.302Z,132.80
2022-11-26T17:57:50.398Z,122.47
2022-11-26T18:00:19.371Z,136.73
2022-11-26T18:02:46.634Z,119.78
2022-11-26T18:05:14.084Z,122.90
2022-11-26T18:07:41.285Z,135.90
2022-11-26T18:10:13.146Z,128.88
2022-11-26T18:12:40.880Z,123.35
2022-11-26T18:15:08.613Z,136.88
2022-11-26T18:17:38.314Z,145.43
2022-11-26T18:20:05.819Z,156.57
2022-11-26T18:22:33.220Z,145.35
2022-11-26T18:25:00.292Z,158.60
2022-11-26T18:27:30.889Z,151.80
2022-11-26T18:29:58.196Z,145.10
2022-11-26T18:32:25.324Z,155.23
2022-11-26T18:34:52.659Z,140.05
2022-11-26T18:37:19.877Z,149.48
2022-11-26T18:39:47.064Z,151.27
2022-11-26T18:45:01.524Z,137.27
2022-11-26T18:47:28.773Z,131.32
2022-11-26T18:49:55.812Z,133.10
2022-11-26T18:52:23.607Z,149.73
2022-11-26T18:54:51.129Z,127.95
2022-11-26T18:57:18.249Z,115.32
2022-11-26T18:59:46.921Z,164.85
2022-11-26T19:02:14.156Z,143.57
2022-11-26T19:04:41.716Z,154.63
2022-11-26T19:07:10.616Z,163.55
2022-11-26T19:09:38.089Z,160.10
2022-11-26T19:12:05.554Z,138.05
2022-11-26T19:14:32.785Z,146.05
2022-11-26T19:17:00.164Z,137.60
2022-11-26T19:19:28.384Z,137.57
2022-11-26T19:22:01.062Z,131.10
2022-11-26T19:24:29.466Z,121.45
2022-11-26T19:26:57.926Z,113.13
2022-11-26T19:29:25.242Z,109.90
2022-11-26T19:31:52.430Z,125.50
2022-11-26T19:34:19.893Z,110.50
2022-11-26T19:36:48.846Z,105.40
2022-11-26T19:39:16.729Z,134.48
2022-11-26T19:41:44.044Z,108.70
2022-11-26T19:44:15.121Z,115.13
2022-11-26T19:46:43.232Z,124.88
2022-11-26T19:49:12.169Z,109.40
2022-11-26T19:51:40.391Z,123.22
2022-11-26T19:54:08.234Z,107.03
2022-11-26T19:56:35.621Z,100.53
2022-11-26T19:59:03.303Z,97.43
2022-11-26T20:01:31.853Z,109.88
2022-11-26T20:03:59.881Z,112.25
2022-11-26T20:06:28.569Z,127.20
2022-11-26T20:08:57.463Z,116.75
2022-11-26T20:11:24.778Z,112.95
2022-11-26T20:13:52.068Z,111.45
2022-11-26T20:16:20.619Z,92.00
2022-11-26T20:18:48.220Z,95.78
2022-11-26T20:21:17.420Z,96.30
2022-11-26T20:23:44.604Z,107.63
2022-11-26T20:26:17.640Z,88.72
2022-11-26T20:28:45.113Z,97.22
2022-11-26T20:31:13.459Z,97.75
2022-11-26T20:33:41.093Z,103.30
2022-11-26T20:36:09.348Z,103.53
2022-11-26T20:38:37.174Z,114.15
2022-11-26T20:41:08.305Z,112.35
2022-11-26T20:43:35.678Z,94.78
2022-11-26T20:46:03.842Z,79.97
2022-11-26T20:48:31.454Z,99.35
2022-11-26T20:51:05.278Z,64.05
2022-11-26T20:53:34.058Z,57.72
2022-11-26T20:56:01.407Z,66.78
2022-11-26T20:58:29.109Z,67.85
2022-11-26T21:00:56.512Z,64.90
2022-11-26T21:03:24.511Z,78.40
2022-11-26T21:05:51.861Z,81.07
2022-11-26T21:08:19.190Z,78.68
2022-11-26T21:10:46.917Z,78.10
2022-11-26T21:13:15.123Z,83.13
2022-11-26T21:15:42.785Z,74.32
2022-11-26T21:18:10.553Z,74.80
2022-11-26T21:20:41.635Z,71.82
2022-11-26T21:23:09.722Z,74.88
2022-11-26T21:25:40.945Z,73.82
2022-11-26T21:28:08.377Z,68.13
2022-11-26T21:30:36.059Z,78.47
2022-11-26T21:33:08.793Z,72.43
2022-11-26T21:35:37.668Z,67.53
2022-11-26T21:38:05.489Z,65.05
2022-11-26T21:40:33.445Z,69.60
2022-11-26T21:43:00.539Z,66.90
2022-11-26T21:45:30.812Z,69.38
2022-11-26T21:47:58.061Z,69.00
2022-11-26T21:50:25.195Z,95.05
2022-11-26T21:52:52.394Z,97.22
2022-11-26T21:55:19.726Z,90.28
2022-11-26T21:57:46.820Z,67.28
2022-11-26T22:00:14.737Z,77.05
2022-11-26T22:02:41.927Z,87.45
2022-11-26T22:05:09.098Z,89.50
2022-11-26T22:07:36.570Z,85.90
2022-11-26T22:10:05.072Z,91.55
2022-11-26T22:12:33.181Z,89.30
2022-11-26T22:15:00.250Z,90.55
2022-11-26T22:17:27.434Z,114.47
2022-11-26T22:19:54.604Z,120.80
2022-11-26T22:22:21.807Z,123.10
2022-11-26T22:24:50.532Z,112.78
2022-11-26T22:27:18.030Z,117.95
2022-11-26T22:29:45.256Z,110.55
2022-11-26T22:32:12.392Z,111.10
2022-11-26T22:34:40.086Z,110.95
2022-11-26T22:37:08.563Z,101.93
2022-11-26T22:39:43.851Z,105.13
2022-11-26T22:42:11.077Z,102.03
2022-11-26T22:44:38.521Z,107.60
2022-11-26T22:47:05.617Z,113.00
2022-11-26T22:49:33.033Z,107.05
2022-11-26T22:52:00.127Z,109.75
2022-11-26T22:54:28.368Z,98.60
2022-11-26T22:56:55.501Z,99.43
2022-11-26T22:59:22.971Z,99.53
2022-11-26T23:01:54.851Z,109.10
2022-11-26T23:04:23.876Z,108.45
2022-11-26T23:06:54.762Z,101.22
2022-11-26T23:09:22.536Z,115.38
2022-11-26T23:11:51.040Z,115.15
2022-11-26T23:14:18.099Z,107.82
2022-11-26T23:16:45.203Z,102.28
2022-11-26T23:19:17.436Z,112.13
2022-11-26T23:21:47.038Z,106.85
2022-11-26T23:24:15.225Z,106.53
2022-11-26T23:26:42.616Z,106.55
2022-11-26T23:29:12.132Z,101.07
2022-11-26T23:31:40.885Z,97.80
2022-11-26T23:34:08.591Z,109.63
2022-11-26T23:36:36.794Z,92.35
2022-11-26T23:39:05.242Z,89.78
2022-11-26T23:41:32.503Z,93.50
2022-11-26T23:43:59.701Z,91.72
2022-11-26T23:46:30.241Z,64.40
2022-11-26T23:48:57.535Z,73.80
2022-11-26T23:51:26.050Z,79.63
2022-11-26T23:53:53.694Z,62.47
2022-11-26T23:56:24.731Z,72.32
2022-11-26T23:58:53.024Z,64.15
